Arlington, AL

2:09 AM CDT on May 01, 2017 (GMT -0500)
Edgewood Drive | | Change Station

Elev 128 ft 31.90 °N, 87.72 °W | Updated 25 minutes ago

Thunderstorm
Thunderstorm
66.5 °F
Feels Like 66.5 °F
N
3.0
Wind Variable Wind from ENE

Today
High -- | Low -- °F
--% Chance of Precip.
Yesterday
High -- | Low -- °F
Precip. -- in
Pressure 29.89 in
Visibility 10.0 miles
Clouds
Dew Point 63 °F
Humidity 88%
Rainfall 0.82 in
Snow Depth Not available.
6:03 AM 7:31 PM
Waxing Crescent, 30% visible
METAR KDYA 010655Z AUTO 26011G18KT 10SM -DZ 18/18 A2989 RMK AO2 T01830183
Pressure 29.89 in
Visibility 10.0 miles
Clouds
Dew Point 63 °F
Humidity 88%
Rainfall 0.82 in
Snow Depth Not available.
6:03 AM 7:31 PM
Waxing Crescent, 30% visible
METAR KDYA 010655Z AUTO 26011G18KT 10SM -DZ 18/18 A2989 RMK AO2 T01830183

Get Severe Weather Alerts

Thanks for signing up!

Be on the lookout for a verification email in your inbox.

You'll start receiving the daily forecast at 8 AM.

×

10-Day Weather Forecast

Almanac

Astronomy

May. 01, 2017 Rise Set
Actual Time
Civil Twilight
Nautical Twilight
Astronomical Twilight
Moon
Length of Visible Light
Length of Day
Tomorrow will be .
, % of the Moon is Illuminated

Today's Extremes

State Highs State Lows

Community

WunderPhotos

WunderBlog® & News

Nearby

Air Quality

  Air Quality AQ Index Pollutant
Not available.

Snow Depth

Station Depth Elevation

Earthquake Activity

City Distance Mag. Time & Date
Minimum magnitude displayed is 2.5.

Coastal Water Temperatures

Place Temperature

Stations

Nearby Weather Stations

Station Location Temp. Windchill Dew Point Humidity Wind Precip. Elev Updated Type
                   

Watches & Warnings

There are currently no watches in effect.